Date,TemperatureHighF,TemperatureAvgF,TemperatureLowF,DewpointHighF,DewpointAvgF,DewpointLowF,HumidityHigh,HumidityAvg,HumidityLow,PressureMaxIn,PressureMinIn,WindSpeedMaxMPH,WindSpeedAvgMPH,GustSpeedMaxMPH,PrecipitationSumIn
2013-1-3,27,18,7,22,13,4,91,81,67,30.47,30.37,8,4,9,0.00
2013-1-4,26,13,4,19,7,0,88,78,64,30.37,30.18,7,3,10,0.00
2013-1-5,40,22,4,27,14,0,87,72,56,30.30,30.09,18,8,19,0.00
2013-1-6,32,23,15,24,17,11,82,77,67,30.38,30.11,19,6,24,0.00
2013-1-7,37,25,12,26,20,9,91,80,63,30.05,29.94,5,1,7,0.00
2013-1-8,36,25,10,30,6,-100,96,71,72,30.22,29.90,8,-146,11,0.00
2013-1-9,39,22,17,30,0,-100,88,67,70,30.47,30.19,6,-173,9,0.00
2013-1-10,36,32,22,35,31,18,100,95,77,30.33,29.61,10,4,13,0.09
2013-1-11,37,36,34,37,36,34,100,100,100,29.62,29.34,11,4,15,0.00
2013-1-12,17,14,11,7,5,4,72,66,59,30.21,30.07,15,10,18,0.00
2013-1-13,20,12,3,6,3,-3,79,68,53,30.43,30.30,11,5,13,0.00
2013-1-14,24,13,3,14,6,-3,88,72,53,30.55,30.37,7,2,11,0.00
2013-1-15,28,18,9,17,11,4,88,73,56,30.37,30.09,9,4,13,0.00
2013-1-16,50,34,16,33,25,9,83,69,46,30.27,30.00,12,6,15,0.00
2013-1-17,44,29,25,33,8,-100,88,65,60,30.47,30.24,7,-148,9,0.00
2013-1-18,46,35,28,34,28,23,83,74,60,30.23,29.92,9,4,11,0.00
2013-1-19,53,41,29,29,26,23,88,58,34,30.28,29.88,17,8,23,0.00
2013-1-20,29,23,18,26,16,13,88,75,62,30.49,30.24,13,3,16,0.00
2013-1-21,23,18,14,17,12,9,84,78,69,30.46,30.33,8,5,9,0.00
2013-1-22,26,18,12,16,11,5,82,73,61,30.37,30.23,7,4,11,0.00
2013-1-23,34,23,14,23,15,6,85,73,59,30.48,30.17,16,7,18,0.00
2013-1-24,20,14,7,10,5,2,82,68,51,30.50,30.18,12,6,17,0.00
2013-1-25,50,31,15,30,22,9,82,69,43,30.26,30.13,7,2,9,0.00
2013-1-26,53,37,26,30,22,-100,86,63,35,30.14,29.89,19,-26,23,0.00
2013-1-27,43,38,32,43,38,32,100,100,100,29.80,29.65,6,1,8,0.05
2013-1-28,36,31,29,36,31,29,100,100,100,29.80,29.69,3,0,4,0.01
2013-1-29,35,32,28,31,30,27,98,92,82,29.77,29.63,15,12,22,0.00
2013-1-30,28,22,19,28,16,10,98,76,61,29.97,29.75,26,15,30,0.00
2013-1-31,17,13,8,11,2,-2,80,61,49,30.49,30.11,21,9,25,0.00
2013-2-1,40,25,6,32,19,-1,86,77,63,30.45,30.03,16,8,22,0.00
2013-2-2,53,40,31,33,28,21,90,65,28,30.20,30.06,21,9,23,0.00
2013-2-3,46,35,24,31,27,20,87,72,53,30.23,29.79,15,4,18,0.00
2013-2-4,36,32,28,29,27,24,94,82,68,30.01,29.80,12,5,16,0.00
2013-2-5,53,39,28,32,28,23,93,67,32,30.03,29.86,12,5,13,0.00
2013-2-6,53,41,33,42,34,28,97,77,60,29.94,29.73,19,7,20,0.00
2013-2-7,52,39,25,38,29,23,96,69,36,30.22,29.86,16,7,19,0.00
2013-2-8,33,25,22,33,24,22,100,97,91,30.28,30.15,14,4,15,0.00
2013-2-9,50,42,31,40,36,29,100,79,57,29.88,29.45,22,16,26,0.06
2013-2-10,40,32,30,40,23,-100,100,80,65,29.96,29.14,35,-26,35,0.02
2013-2-11,36,28,21,21,17,14,81,64,43,30.19,29.96,18,9,21,0.00
2013-2-12,46,31,18,22,16,8,82,59,21,30.16,29.94,13,5,18,0.00
2013-2-13,51,37,26,30,19,-100,79,54,32,29.94,29.77,15,-30,18,0.00
2013-2-14,42,33,20,30,23,16,87,67,39,30.35,29.85,28,13,32,0.00
2013-2-15,35,23,14,22,13,8,86,68,34,30.43,30.32,24,8,26,0.00
2013-2-16,53,30,11,30,19,6,84,66,39,30.39,29.95,17,6,23,0.00
2013-2-17,64,40,23,32,24,18,87,59,20,29.95,29.47,17,4,18,0.00
2013-2-18,44,35,23,32,22,15,74,60,43,30.13,29.48,26,16,31,0.00
2013-2-19,31,22,15,16,8,1,78,57,29,30.37,30.14,13,7,17,0.00
2013-2-20,21,17,11,18,8,1,89,70,48,30.32,30.13,16,11,22,0.00
2013-2-21,18,17,15,16,14,10,93,88,71,30.13,29.91,20,13,25,0.00
2013-2-22,23,14,2,15,9,-2,91,83,72,30.14,29.97,12,6,15,0.00
2013-2-23,32,18,3,24,13,-2,92,82,73,30.08,29.84,12,4,13,0.00
2013-2-24,30,21,12,28,11,-100,97,86,88,30.10,29.85,12,-67,14,0.00
2013-2-25,30,25,19,30,24,17,99,94,84,30.10,29.93,13,6,16,0.01
2013-2-26,27,22,17,25,20,15,95,93,91,30.01,29.87,10,6,13,0.00
2013-2-27,35,29,22,27,23,18,93,78,67,30.19,30.00,23,14,26,0.00
2013-2-28,32,28,20,26,23,17,92,82,75,30.28,30.15,18,10,21,0.00
2013-3-1,31,25,16,24,20,13,94,83,73,30.40,30.25,14,8,19,0.00
2013-3-2,37,26,11,31,22,8,96,87,76,30.40,30.03,12,5,16,0.00
2013-3-3,47,36,28,38,33,26,96,88,69,30.02,29.58,8,3,10,0.00
2013-3-4,40,35,31,34,32,30,97,89,79,29.75,29.57,26,12,29,0.00
2013-3-6,40,34,26,24,22,19,78,61,47,30.40,30.14,15,9,19,0.00
2013-3-7,53,42,29,32,28,24,82,61,42,30.12,29.98,14,7,17,0.00
2013-3-8,35,32,30,29,28,27,89,86,78,30.06,29.94,23,6,26,0.00
2013-3-9,35,32,30,33,28,26,93,88,84,29.74,29.58,27,23,35,0.04
2013-3-10,31,25,20,28,18,14,91,75,64,30.08,29.70,30,23,40,0.00
2013-3-11,54,32,15,30,18,10,79,60,32,30.07,29.83,20,8,28,0.00
2013-3-12,42,35,21,18,12,6,74,40,23,30.36,30.20,27,16,39,0.00
2013-3-13,50,38,18,32,23,12,82,59,30,30.38,30.12,19,8,28,0.00
2013-3-14,73,52,33,41,33,30,90,56,21,30.11,29.97,13,5,18,0.00
2013-3-15,78,52,40,44,36,26,83,60,15,29.98,29.57,16,6,20,0.00
2013-3-16,44,34,30,36,25,20,85,68,50,30.11,29.76,21,12,30,0.00
2013-3-17,42,31,25,33,26,22,100,84,66,30.10,29.64,16,8,23,0.01
2013-3-18,45,36,27,34,22,10,100,64,26,30.06,29.70,21,10,33,0.06
2013-3-19,45,34,29,33,27,14,93,76,44,30.33,30.00,12,4,19,0.02
2013-3-20,44,28,15,22,5,-100,87,53,27,30.42,30.00,11,-87,17,0.00
2013-3-21,43,32,27,26,17,-100,76,56,36,30.01,29.75,19,4,27,0.00
2013-3-22,35,27,25,32,18,-100,99,86,77,29.99,29.88,8,-76,14,0.04
2013-3-23,31,27,23,30,22,-100,97,91,83,30.17,29.97,21,-24,29,0.00
2013-3-24,32,24,17,19,15,12,84,70,47,30.25,30.11,24,15,33,0.00
2013-3-25,28,22,18,16,14,11,84,70,53,30.42,30.23,22,11,30,0.00
2013-3-26,45,25,10,24,14,6,86,66,34,30.42,30.16,14,4,20,0.00
2013-3-27,53,24,31,29,-29,-100,73,31,38,30.16,30.02,15,-432,18,0.00
2013-3-28,62,21,52,33,-54,-100,48,11,20,30.15,29.98,11,-635,20,0.00
2013-3-29,68,16,62,40,-67,-100,46,8,30,30.07,29.86,17,-757,25,0.00
2013-3-30,64,44,50,54,8,-100,100,45,34,29.92,29.83,15,-242,21,0.00
2013-4-1,45,22,36,23,-36,-100,55,24,39,30.31,30.10,14,-471,18,0.00
2013-4-2,53,18,40,26,-55,-100,49,13,29,30.25,30.07,10,-630,18,0.00
2013-4-3,-200,0,200,-100,-100,-100,0,0,100,30.18,30.14,0,-999,0,0.00
2013-4-10,-200,0,200,-100,-100,-100,0,0,100,29.92,29.78,0,-999,0,0.00
2013-4-11,-200,0,200,-100,-100,-100,0,0,100,29.78,29.68,0,-999,0,0.00
2013-4-14,55,26,50,29,-38,-100,37,16,30,29.64,29.44,25,-489,29,0.00
2013-4-15,44,12,38,29,-64,-100,59,15,48,29.94,29.63,14,-715,18,0.00
2013-4-16,44,18,36,29,-46,-100,73,24,51,30.20,29.94,16,-573,21,0.00
2013-4-17,-200,0,200,-100,-100,-100,0,0,100,30.08,29.73,0,-999,0,0.00
2013-4-22,-200,0,200,-100,-100,-100,0,0,100,30.17,29.83,0,-999,0,0.00
2013-4-23,36,16,28,24,-38,-100,87,33,49,30.29,30.11,18,-486,19,0.00
2013-4-24,54,34,25,35,26,20,86,74,32,30.26,30.08,23,4,25,0.11
2013-4-25,70,50,30,37,31,26,91,54,21,30.22,29.89,30,13,37,0.00
2013-4-26,72,55,43,50,37,35,78,55,27,30.02,29.87,15,6,20,0.00
2013-4-27,72,65,53,56,44,39,100,50,31,30.05,29.84,12,7,15,0.00
2013-4-28,88,65,46,49,42,26,96,54,11,29.84,29.52,21,11,24,0.00
2013-4-29,82,66,53,54,44,38,69,47,23,29.68,29.36,21,8,28,0.00
2013-4-30,71,62,52,56,42,28,76,50,27,29.84,29.34,24,16,27,0.02
2013-5-1,50,36,32,41,35,31,100,96,57,30.50,29.83,28,20,34,0.16
2013-5-2,50,40,35,33,30,26,84,69,40,30.62,30.47,21,14,24,0.03
2013-5-3,54,47,36,31,24,14,71,43,23,30.32,30.06,20,12,28,0.08
2013-5-4,50,42,33,38,30,23,87,63,50,30.16,30.01,24,16,29,0.00
2013-5-5,61,48,41,43,40,37,91,73,48,30.18,30.04,15,8,17,0.00
2013-5-6,69,53,34,50,37,30,100,62,24,30.12,29.96,7,2,10,0.00
2013-5-7,64,56,49,56,52,36,96,84,58,29.97,29.81,17,6,17,0.08
2013-5-8,69,60,54,58,55,53,100,85,63,29.85,29.79,17,5,20,0.08
2013-5-9,57,55,53,56,54,52,99,98,95,29.92,29.86,16,13,16,0.01
2013-5-25,86,78,65,65,62,59,83,59,43,29.88,29.69,20,16,27,0.30
2013-5-26,86,74,63,67,64,61,98,73,51,29.72,29.58,27,15,30,0.00
2013-5-30,66,64,62,59,58,58,86,81,76,29.48,29.46,13,11,16,0.01
2013-6-3,76,71,64,55,53,51,63,54,48,29.78,29.65,22,21,32,0.00
2013-6-5,69,63,54,51,48,46,79,60,44,30.01,29.93,15,9,16,0.00
2013-6-6,72,61,48,51,47,44,89,63,37,30.00,29.89,14,6,19,0.00
2013-6-7,77,64,50,54,50,46,89,62,39,29.96,29.73,11,3,13,0.00
2013-6-8,73,65,59,62,57,54,90,75,52,29.73,29.52,19,10,22,0.03
2013-6-9,79,68,55,53,49,42,89,56,27,29.78,29.72,26,12,30,0.00
2013-6-10,89,72,52,68,56,48,88,60,35,29.79,29.58,17,8,22,0.00
2013-6-11,101,86,73,70,59,45,85,44,22,29.66,29.39,24,12,27,0.05
2013-6-12,85,71,60,61,56,52,74,61,40,29.98,29.39,25,7,25,0.00
2013-6-13,80,68,53,58,53,48,96,64,38,30.02,29.83,13,7,18,0.00
2013-6-14,99,71,65,70,50,-100,93,60,21,29.88,29.56,26,-59,32,0.21
2013-6-15,84,73,62,68,62,58,91,70,47,29.82,29.63,16,5,19,0.06
2013-6-16,85,72,60,71,64,56,100,80,39,29.97,29.77,20,4,23,0.67
2013-6-17,83,71,59,67,61,55,98,74,40,29.98,29.80,8,2,11,0.00
2013-6-18,82,70,63,64,60,56,93,73,43,29.94,29.82,12,5,15,0.05
2013-6-19,76,65,60,67,63,59,100,93,69,29.87,29.80,10,4,14,0.00
2013-6-20,90,83,73,69,68,66,87,61,47,29.66,29.57,20,14,25,0.00
2013-6-21,95,84,76,68,63,54,74,52,29,29.61,29.52,26,16,34,0.00
2013-6-22,92,78,66,69,63,56,88,62,38,29.76,29.51,20,12,25,0.00
2013-6-23,80,72,61,69,64,56,99,79,50,29.77,29.52,18,6,24,0.16
2013-6-24,86,58,64,72,32,-100,100,65,58,29.75,29.52,16,-200,21,0.22
2013-6-25,88,62,71,74,32,-100,93,55,51,29.59,29.48,16,-208,22,0.00
2013-6-26,94,70,64,70,45,-100,86,57,27,29.80,29.59,6,-101,8,0.00
2013-6-27,90,78,69,74,68,64,91,72,53,29.91,29.72,14,5,18,0.00
2013-6-28,86,67,67,66,44,-100,93,58,32,29.96,29.85,13,-94,18,0.00
2013-6-29,82,71,60,59,54,45,87,59,28,29.94,29.84,17,7,24,0.00
2013-6-30,78,67,56,58,54,50,93,67,43,30.06,29.90,12,5,18,0.00
2013-7-1,78,65,51,55,50,45,92,64,33,30.15,30.05,8,3,12,0.00
2013-7-2,82,68,54,57,52,45,91,61,28,30.10,29.97,8,2,9,0.00
2013-7-3,85,64,55,56,43,-100,91,57,23,29.99,29.80,12,-58,14,0.00
2013-7-4,88,52,56,56,13,-100,83,44,27,29.87,29.69,16,-249,22,0.00
2013-7-5,88,77,63,63,59,54,77,54,37,29.74,29.62,14,9,17,0.00
2013-7-6,94,79,69,66,62,58,81,59,31,29.66,29.55,20,10,24,0.05
2013-7-7,89,76,69,73,59,-100,81,62,47,29.77,29.61,10,-35,13,0.00
2013-7-8,94,62,71,72,31,-100,91,54,39,29.83,29.68,10,-209,17,0.00
2013-7-9,90,52,72,76,12,-100,85,49,46,29.87,29.68,13,-322,16,0.14
2013-7-10,81,50,72,71,6,-100,91,44,54,30.00,29.83,9,-346,12,0.00
2013-7-11,88,69,66,69,48,-100,94,62,46,29.93,29.75,11,-102,15,0.00
2013-7-12,95,81,68,73,66,63,85,63,41,29.80,29.65,14,9,20,0.00
2013-7-13,98,73,71,73,47,-100,90,54,36,29.74,29.64,13,-122,18,0.00
2013-7-14,81,72,65,71,64,-100,97,81,62,30.01,29.69,16,-23,26,0.13
2013-7-15,86,73,61,66,61,56,94,70,38,30.08,29.97,10,4,12,0.00
2013-7-16,85,73,61,66,63,61,99,74,46,30.13,30.03,15,6,22,0.00
2013-7-17,88,68,63,68,50,-100,99,66,46,30.18,30.01,13,-87,19,0.00
2013-7-18,92,79,66,69,65,60,96,66,35,30.02,29.76,18,9,22,0.00
2013-7-19,86,76,67,72,66,62,91,73,58,29.83,29.77,8,3,13,0.00
2013-7-20,81,29,69,68,-38,-100,92,26,54,29.83,29.72,11,-622,15,0.00
2013-7-21,90,61,61,69,32,-100,97,55,37,29.85,29.64,13,-178,13,0.00
2013-7-22,93,72,66,70,50,-100,100,61,33,29.71,29.60,8,-91,10,0.00
2013-7-23,78,21,66,67,-56,-100,91,20,64,29.93,29.68,10,-714,12,0.00
2013-7-24,86,69,57,68,57,-100,100,74,41,30.03,29.86,5,-33,7,0.01
2013-7-25,75,70,65,69,65,61,97,84,73,29.96,29.86,9,2,15,0.06
2013-7-26,76,52,63,63,12,-100,92,42,46,30.08,29.92,11,-272,16,0.01
2013-7-27,70,34,54,58,-13,-100,97,46,57,30.10,29.91,6,-432,7,0.03
2013-7-28,65,59,54,60,56,52,100,89,71,30.00,29.92,9,3,11,0.03
2013-7-29,66,25,60,66,-35,-100,100,39,98,29.95,29.85,7,-606,7,0.00
2013-7-30,74,30,65,66,-30,-100,100,37,75,30.09,29.91,5,-569,5,0.00
2013-7-31,67,49,62,66,24,-100,100,74,94,30.10,29.95,7,-247,7,0.00
2013-8-1,85,11,67,70,-79,-100,93,9,59,29.98,29.74,14,-849,14,0.00
2013-8-2,79,21,64,70,-52,-100,99,24,72,29.93,29.70,6,-705,6,0.00
2013-8-3,74,68,62,68,64,60,100,88,71,30.08,29.90,5,3,10,0.00
2013-8-4,79,70,63,70,65,59,99,85,71,30.06,29.86,4,1,6,0.00
2013-8-5,81,74,68,74,71,68,100,93,76,29.90,29.72,3,0,6,0.00
2013-8-6,88,76,67,75,71,67,100,85,57,29.79,29.67,4,0,6,0.00
2013-8-7,82,74,68,72,66,60,100,79,49,29.86,29.72,5,1,7,0.00
2013-8-8,79,70,64,69,62,-100,98,81,53,29.93,29.80,2,-13,3,0.00
2013-8-9,80,67,60,70,64,60,100,91,58,30.03,29.92,2,0,4,0.00
2013-8-10,85,72,59,65,63,59,100,75,45,30.07,29.93,1,0,1,0.00
2013-8-11,88,73,61,70,65,60,99,77,51,29.98,29.85,8,0,11,0.07
2013-8-12,81,70,60,69,65,60,100,85,59,29.97,29.88,4,0,5,0.07
2013-8-13,75,67,62,67,64,61,100,91,73,30.08,29.93,5,1,9,0.00
2013-8-14,63,62,60,63,61,60,99,99,98,30.07,30.04,0,0,0,0.00
2013-8-16,72,66,62,66,62,-100,100,88,77,30.04,29.99,2,-14,4,0.00
2013-8-17,77,27,71,66,-40,-100,78,26,65,30.05,29.92,4,-633,6,0.00
2013-8-18,80,30,71,66,-35,-100,72,26,63,30.03,29.86,2,-604,6,0.00
2013-8-19,-200,0,200,-100,-100,-100,0,0,100,29.96,29.84,0,-999,0,0.00
2013-8-20,-200,0,200,-100,-100,-100,0,0,100,29.89,29.86,0,-999,0,0.00
2013-10-8,81,44,66,40,-22,-100,34,14,21,29.78,29.60,26,-410,33,0.00
2013-10-9,81,33,60,48,-36,-100,63,16,26,29.80,29.64,19,-550,25,0.00
2013-10-10,81,42,64,58,-12,-100,72,30,34,29.78,29.51,23,-413,28,0.00
2013-10-11,68,59,50,58,49,41,96,72,43,29.87,29.42,20,10,24,0.15
2013-10-12,64,49,43,44,26,-100,82,53,25,30.22,29.87,8,-63,13,0.00
2013-10-13,67,56,43,39,34,28,73,47,24,30.31,30.07,18,9,26,0.00
2013-10-14,58,53,50,53,45,36,98,77,45,30.07,29.80,16,10,20,0.07
2013-10-15,47,44,42,35,34,33,75,69,61,30.13,30.06,15,10,17,0.00
2013-10-16,56,44,32,35,32,25,93,66,30,30.13,29.93,6,3,12,0.00
2013-10-17,53,42,34,40,34,28,89,73,56,30.10,29.86,16,6,26,0.00
2013-10-18,50,39,31,34,28,21,89,69,35,30.15,30.01,8,2,11,0.00
2013-10-19,65,46,32,37,32,27,90,63,28,30.03,29.75,11,4,17,0.00
2013-10-20,62,50,38,40,35,32,80,59,34,30.01,29.68,14,5,21,0.00
2013-10-21,59,45,30,40,32,27,93,66,29,30.08,29.90,11,3,17,0.00
2013-10-22,59,48,36,42,38,32,87,69,40,30.09,29.89,19,7,25,0.00
2013-10-23,65,46,36,42,36,32,89,71,38,30.19,29.92,22,7,33,0.00
2013-10-24,44,41,37,38,30,24,87,67,53,30.41,30.18,11,4,16,0.00
2013-10-25,57,44,33,34,30,26,81,61,40,30.36,30.03,20,8,26,0.00
2013-10-26,54,44,33,35,26,21,78,54,27,30.16,30.00,10,2,12,0.00
2013-10-27,75,52,34,38,32,24,76,51,20,30.12,29.71,14,5,22,0.00
2013-10-28,52,44,38,40,36,33,94,72,53,30.08,29.83,20,12,26,0.03
2013-10-29,44,42,39,44,42,39,100,99,94,30.05,29.90,13,7,19,0.07
2013-10-30,50,40,36,46,39,34,100,96,75,29.99,29.74,8,3,12,0.00
2013-10-31,59,44,30,40,34,29,100,72,32,29.76,29.53,19,6,28,0.01
2013-11-1,58,46,38,39,33,24,78,62,28,30.07,29.64,25,12,34,0.00
2013-11-2,40,34,30,30,27,25,82,77,67,30.19,30.06,9,5,13,0.00
2013-11-3,62,52,48,37,25,-100,65,43,34,29.59,29.49,26,-62,31,0.00
2013-11-4,47,40,34,37,34,28,85,77,66,30.08,29.58,15,6,18,0.00
2013-11-5,41,36,32,39,34,27,100,92,74,30.13,29.87,18,11,25,0.81
2013-11-6,46,34,29,34,29,27,94,84,56,30.31,30.13,12,6,14,0.00
2013-11-7,51,39,30,34,30,26,87,70,42,30.44,30.14,8,4,11,0.00
2013-11-8,62,46,38,41,35,32,88,68,44,30.14,29.66,20,7,20,0.00
2013-11-9,60,45,35,36,32,28,88,63,30,30.29,29.91,8,4,11,0.00
2013-11-10,52,41,30,42,34,26,96,77,57,30.36,30.09,17,6,22,0.00
2013-11-11,44,32,21,43,26,9,100,79,50,30.80,30.05,20,12,25,0.01
2013-11-12,37,24,11,17,12,6,86,64,37,30.91,30.54,11,4,14,0.00
2013-11-13,58,35,25,38,12,-100,82,56,40,30.53,29.87,21,-116,29,0.00
2013-11-14,59,40,33,40,21,-100,89,65,49,29.90,29.83,10,-96,12,0.00
2013-11-15,56,42,29,39,34,28,95,74,45,29.84,29.44,16,7,21,0.00
2013-11-16,63,46,39,40,26,-100,92,57,19,29.44,29.24,19,-34,23,0.00
2013-11-17,52,43,28,41,29,-100,89,62,40,30.08,29.26,31,0,40,0.02
2013-11-18,58,40,26,24,20,15,81,51,19,30.22,30.08,19,6,26,0.00
2013-11-19,60,44,27,36,28,21,78,55,33,30.08,29.68,27,14,33,0.00
2013-11-20,61,47,36,36,31,-100,82,57,38,29.92,29.63,15,-6,18,0.00
2013-11-21,37,23,16,32,15,10,84,72,59,30.68,29.94,24,18,30,0.00
2013-11-22,29,19,11,16,8,2,74,63,31,30.77,30.66,13,6,17,0.00
2013-11-23,24,18,12,15,8,4,77,65,45,30.89,30.68,9,4,11,0.00
2013-11-24,35,23,13,23,13,-100,82,68,55,30.73,30.15,22,-1,27,0.00
2013-11-25,45,32,21,28,22,18,90,70,37,30.27,30.11,17,7,19,0.00
2013-11-26,33,25,10,21,11,2,81,60,27,30.49,30.24,20,8,25,0.00
2013-11-27,39,21,8,26,12,1,77,68,41,30.49,30.03,21,5,32,0.00
2013-11-28,33,27,23,24,19,-100,88,78,68,30.40,30.05,13,-20,16,0.00
2013-11-29,47,36,27,29,26,21,85,65,49,30.33,30.11,17,7,20,0.00
2013-11-30,61,40,24,33,23,20,88,58,23,30.15,30.01,5,2,9,0.00
2013-12-1,51,33,23,32,25,20,91,74,47,30.15,29.77,8,2,10,0.00
2013-12-2,61,47,34,33,30,25,72,53,32,29.76,29.44,11,4,15,0.00
2013-12-3,37,32,25,33,27,20,95,84,67,29.75,29.43,18,10,21,0.00
2013-12-4,25,16,10,20,8,-2,89,71,53,30.23,29.72,20,15,27,0.00
2013-12-5,14,8,4,-2,-7,-10,62,50,35,30.53,30.23,15,9,19,0.00
2013-12-6,12,3,-4,-8,-11,-13,66,52,34,30.78,30.52,11,5,14,0.00
2013-12-7,11,4,-6,5,-7,-100,82,64,43,30.79,30.37,9,-9,12,0.00
2013-12-8,14,10,7,10,6,3,86,84,82,30.36,30.05,8,4,11,0.00
2013-12-10,29,24,14,24,16,7,82,70,60,30.30,30.11,16,5,18,0.00
2013-12-11,27,14,8,20,4,-100,77,66,49,30.70,30.31,22,-10,22,0.00
2013-12-12,39,22,9,26,14,-100,85,73,52,30.49,30.02,8,-6,10,0.00
2013-12-13,37,22,12,27,18,10,92,82,61,30.15,29.83,17,5,21,0.00
2013-12-14,39,23,13,25,17,8,88,78,56,30.30,30.12,16,6,21,0.00
2013-12-15,56,39,26,29,25,21,80,60,32,30.14,29.88,10,5,14,0.00
2013-12-16,57,40,27,28,25,22,83,58,31,30.18,29.92,13,5,16,0.00
2013-12-17,47,34,25,27,22,16,86,64,31,30.34,30.01,17,6,23,0.00
2013-12-18,37,34,32,24,23,23,71,65,58,30.00,29.81,16,7,16,0.00
2013-12-19,12,10,10,6,6,5,83,81,76,29.99,29.95,17,14,19,0.00
2013-12-20,19,14,9,10,6,3,82,73,63,30.10,29.91,18,6,21,0.00
2013-12-21,27,19,12,16,12,7,85,74,56,29.95,29.76,13,4,17,0.00
2013-12-22,26,16,10,12,9,5,86,75,53,30.23,29.96,13,9,16,0.00
2013-12-23,10,8,6,1,-1,-2,69,68,67,30.68,30.61,6,4,9,0.00
2013-12-24,35,30,25,31,26,21,90,85,82,30.29,30.16,12,5,16,0.00
2013-12-25,42,28,21,26,15,-100,91,68,40,30.35,30.26,19,-40,26,0.00
2013-12-26,54,34,21,21,18,15,85,56,24,30.28,30.11,15,6,22,0.00
2013-12-27,56,37,24,25,21,16,78,55,29,30.26,30.01,11,4,17,0.00
2013-12-28,57,36,12,30,18,2,75,52,22,30.20,29.72,28,12,38,0.00
2013-12-29,17,10,4,2,-4,-7,68,54,38,30.51,30.20,23,10,29,0.00
2013-12-30,48,26,8,24,12,-4,82,56,37,30.30,30.07,29,10,33,0.00
2013-12-31,52,28,14,23,17,8,87,66,30,30.26,29.92,13,6,16,0.00
2014-1-1,16,12,8,10,6,3,83,79,75,30.49,30.01,14,8,19,0.00
2014-1-2,20,15,7,15,6,-100,89,80,78,30.45,30.35,9,-40,11,0.00